Aeroporto :
LOGIN :

Iscrizione | Disclaimer

   EN    FR    IT 

 










Sommario :    VFR   VFR Marginale   IFR   IFR Intensivo   IFR Molto Intensivo
Visibilità : 
Base nubi : 
>= 8 km
>= 3000ft
5 / 8 km
1000 / 3000 ft
1500m / 5 km
500 / 1000 ft
800 / 1500m
200 / 500 ft
< 800m
< 200 ft
Simboli :   Temporali  Nebbia  Neve Forte  Precipitazioni Forti  Vento > 20 kt
SIGMETs :   Varie  Temporali  Ghiacco  Turbolenza  Onda orograficha  Ceneri Vulcaniche






- Altitudine del aeroporto : 1455 ft


ETIH - Hohenfels Army Air Field

ULTIMO METAR :
  • 131010Z AUTO 27007KT 9999 SCT028 19/11 A2996 RMK AO2 SLP143 $

METARs OBSOLETI :
  • 130950Z AUTO 29007KT 9999 BKN027 BKN032 18/12 A2996 RMK AO2 CIG 027V033 SLP143 $
  • 130955Z AUTO 29005KT 9999 BKN027 18/12 A2996 RMK AO2 CIG 027V033 SLP143 T01830121 $
  • 130855Z AUTO 28007KT 9999 SCT030 BKN035 18/12 A2996 RMK AO2 SLP143 T01790121 52008
  • 130835Z AUTO 30005KT 9999 FEW021 SCT026 BKN033 18/13 A2996 RMK AO2 SLP143 $
  • 130755Z AUTO 21004KT 9999 SCT025 BKN100 18/14 A2995 RMK AO2 SLP140 T01800135 $
  • 130805Z AUTO 29007KT 9999 SCT018 BKN026 BKN100 18/13 A2996 RMK AO2 CIG 026V100 SLP143 $
  • 130700Z AUTO 28004KT 9999 FEW015 SCT022 BKN027 17/14 A2994 RMK AO2 BKN V SCT SLP137 $
  • 130655Z AUTO 29006KT 9999 FEW013 SCT024 17/13 A2994 RMK AO2 SLP137 T01700133 $
  • 130615Z AUTO 27004KT 9999 BKN015 17/14 A2993 RMK AO2 SLP134 $
  • 130555Z AUTO 31003KT 9999 SCT014 17/14 A2994 RMK AO2 SLP136 60005 T01650138 10174 20154 51008 $
  • 130545Z AUTO 29003KT 9999 SCT014 16/14 A2993 RMK AO2 SLP134 $
  • 130535Z AUTO 29004KT 9999 BKN013 16/14 A2993 RMK AO2 SLP134 $

Previsioni scadute.



MetMap, La meteo Aeronautica in un colpo d'occhio ! - Copyright ORBIFLY Dicembre 2007 - Disclaimer

ORBIFLY MET'MAP TEAM :

Programmazione e sviluppo : Alexandra Zaïnal
Concezione : Baudouin d'Aumeries
Supporto tecnico e logistico : Manuel Goepfert
Aiuto : Marc-Olivier Méhu
Aiuto per la traduzione : Arnaldo La Scala




FONTI E CREDITI :

   NOAA